createdAt,value
2022-09-09T00:02:25.244Z,4.30
2022-09-09T00:07:53.351Z,4.13
2022-09-09T00:13:01.558Z,4.65
2022-09-09T00:18:17.140Z,4.67
2022-09-09T00:23:27.354Z,4.35
2022-09-09T00:28:33.878Z,4.80
2022-09-09T00:33:36.491Z,5.03
2022-09-09T00:38:43.930Z,4.55
2022-09-09T00:43:55.576Z,4.70
2022-09-09T00:49:07.011Z,4.97
2022-09-09T00:54:34.276Z,4.93
2022-09-09T01:00:12.311Z,4.18
2022-09-09T01:05:22.122Z,5.63
2022-09-09T01:10:36.105Z,4.53
2022-09-09T01:15:40.707Z,4.80
2022-09-09T01:21:04.482Z,4.25
2022-09-09T01:26:31.480Z,4.82
2022-09-09T01:31:42.860Z,4.82
2022-09-09T01:36:48.295Z,4.50
2022-09-09T01:41:50.778Z,5.30
2022-09-09T01:46:53.172Z,4.72
2022-09-09T01:51:57.786Z,4.40
2022-09-09T01:57:12.013Z,5.38
2022-09-09T02:02:28.657Z,5.22
2022-09-09T02:07:43.485Z,4.93
2022-09-09T02:12:49.923Z,4.40
2022-09-09T02:17:54.731Z,4.63
2022-09-09T02:22:58.709Z,4.93
2022-09-09T02:28:01.815Z,4.47
2022-09-09T02:33:07.968Z,4.72
2022-09-09T02:38:14.756Z,4.53
2022-09-09T02:43:20.214Z,4.35
2022-09-09T02:48:31.762Z,4.30
2022-09-09T02:54:02.914Z,4.57
2022-09-09T02:59:06.596Z,4.85
2022-09-09T03:04:08.947Z,5.38
2022-09-09T03:09:12.041Z,4.93
2022-09-09T03:14:14.456Z,5.85
2022-09-09T03:19:16.860Z,5.03
2022-09-09T03:24:19.195Z,5.70
2022-09-09T03:29:21.513Z,5.22
2022-09-09T03:34:23.831Z,4.60
2022-09-09T03:39:26.330Z,5.30
2022-09-09T03:44:28.623Z,5.47
2022-09-09T03:49:30.924Z,6.65
2022-09-09T03:54:33.219Z,6.65
2022-09-09T03:59:36.558Z,6.40
2022-09-09T04:04:38.884Z,5.22
2022-09-09T04:09:41.238Z,5.43
2022-09-09T04:14:43.624Z,5.38
2022-09-09T04:19:46.194Z,5.93
2022-09-09T04:24:48.993Z,6.55
2022-09-09T04:36:05.728Z,6.07
2022-09-09T04:41:09.005Z,7.05
2022-09-09T04:46:11.746Z,7.28
2022-09-09T04:51:15.532Z,6.10
2022-09-09T04:56:19.633Z,6.38
2022-09-09T05:01:23.680Z,7.65
2022-09-09T05:06:26.450Z,7.13
2022-09-09T05:11:31.423Z,7.38
2022-09-09T05:16:33.841Z,7.05
2022-09-09T05:21:36.456Z,7.25
2022-09-09T05:26:38.854Z,8.05
2022-09-09T05:31:41.382Z,7.60
2022-09-09T05:36:43.777Z,6.95
2022-09-09T05:41:46.219Z,6.90
2022-09-09T05:46:49.150Z,6.60
2022-09-09T05:51:52.324Z,6.65
2022-09-09T05:56:55.255Z,6.72
2022-09-09T06:01:57.832Z,6.93
2022-09-09T06:07:00.543Z,6.20
2022-09-09T06:12:03.213Z,6.22
2022-09-09T06:17:06.619Z,6.38
2022-09-09T06:22:09.008Z,6.53
2022-09-09T06:27:12.290Z,7.00
2022-09-09T06:32:14.700Z,5.70
2022-09-09T06:37:17.248Z,6.85
2022-09-09T06:42:20.300Z,6.30
2022-09-09T06:47:22.716Z,6.15
2022-09-09T06:52:26.230Z,5.50
2022-09-09T06:57:43.902Z,6.05
2022-09-09T07:02:46.303Z,5.78
2022-09-09T07:07:48.715Z,4.93
2022-09-09T07:12:57.033Z,4.95
2022-09-09T07:18:03.630Z,4.43
2022-09-09T07:23:05.964Z,4.60
2022-09-09T07:28:09.137Z,3.72
2022-09-09T07:33:11.494Z,4.97
2022-09-09T07:38:13.822Z,4.05
2022-09-09T07:43:18.996Z,3.42
2022-09-09T07:48:21.385Z,4.32
2022-09-09T07:53:24.616Z,3.63
2022-09-09T07:58:27.144Z,4.13
2022-09-09T08:03:29.777Z,4.07
2022-09-09T08:08:32.438Z,3.55
2022-09-09T08:13:36.891Z,3.83
2022-09-09T08:18:40.695Z,3.90
2022-09-09T08:23:46.743Z,3.90
2022-09-09T08:28:51.603Z,3.70
2022-09-09T08:33:54.009Z,3.10
2022-09-09T08:38:58.492Z,3.58
2022-09-09T08:44:32.532Z,3.50
2022-09-09T08:50:14.340Z,4.32
2022-09-09T08:55:49.886Z,3.00
2022-09-09T09:01:10.353Z,3.28
2022-09-09T09:06:39.685Z,3.15
2022-09-09T09:11:54.438Z,4.18
2022-09-09T09:17:02.866Z,3.00
2022-09-09T09:27:36.451Z,3.30
2022-09-09T09:32:44.580Z,3.10
2022-09-09T09:43:23.644Z,2.85
2022-09-09T09:48:31.473Z,2.90
2022-09-09T09:53:40.027Z,3.13
2022-09-09T09:58:56.939Z,2.70
2022-09-09T10:04:18.531Z,2.80
2022-09-09T10:09:28.583Z,2.85
2022-09-09T10:15:04.304Z,2.60
2022-09-09T10:20:39.130Z,3.05
2022-09-09T10:26:22.477Z,2.83
2022-09-09T10:31:46.208Z,3.10
2022-09-09T10:36:52.605Z,2.85
2022-09-09T10:42:09.569Z,3.05
2022-09-09T10:47:28.319Z,2.25
2022-09-09T10:52:50.789Z,2.80
2022-09-09T10:57:55.603Z,3.00
2022-09-09T11:02:58.967Z,2.90
2022-09-09T11:08:08.502Z,3.53
2022-09-09T11:13:24.457Z,2.95
2022-09-09T11:18:28.091Z,2.75
2022-09-09T11:23:41.999Z,2.63
2022-09-09T11:29:05.662Z,2.83
2022-09-09T11:34:20.502Z,2.85
2022-09-09T11:39:32.266Z,2.55
2022-09-09T11:44:35.110Z,2.88
2022-09-09T11:49:40.812Z,2.92
2022-09-09T11:54:51.739Z,3.25
2022-09-09T11:59:54.702Z,3.20
2022-09-09T12:05:07.556Z,3.22
2022-09-09T12:10:10.009Z,3.08
2022-09-09T12:15:13.574Z,3.15
2022-09-09T12:20:19.716Z,3.20
2022-09-09T12:25:34.356Z,2.85
2022-09-09T12:31:06.119Z,3.17
2022-09-09T12:36:17.333Z,2.70
2022-09-09T12:41:27.535Z,2.88
2022-09-09T12:46:47.762Z,2.80
2022-09-09T12:51:51.068Z,2.97
2022-09-09T12:56:59.705Z,2.78
2022-09-09T13:02:02.774Z,2.92
2022-09-09T13:07:11.562Z,2.78
2022-09-09T13:12:24.970Z,2.72
2022-09-09T13:17:32.318Z,2.88
2022-09-09T13:22:39.562Z,2.97
2022-09-09T13:27:58.118Z,3.10
2022-09-09T13:33:18.963Z,3.28
2022-09-09T13:38:27.500Z,3.17
2022-09-09T13:43:51.778Z,2.35
2022-09-09T13:49:11.883Z,2.40
2022-09-09T13:54:16.805Z,2.70
2022-09-09T13:59:30.632Z,2.60
2022-09-09T14:04:42.746Z,2.35
2022-09-09T14:09:45.882Z,2.05
2022-09-09T14:14:48.472Z,2.40
2022-09-09T14:19:50.825Z,2.00
2022-09-09T14:24:56.378Z,1.90
2022-09-09T14:29:59.440Z,1.30
2022-09-09T14:35:02.027Z,2.25
2022-09-09T14:40:04.633Z,1.77
2022-09-09T14:45:07.890Z,1.67
2022-09-09T14:50:10.615Z,1.70
2022-09-09T14:55:12.975Z,1.83
2022-09-09T15:00:15.574Z,1.65
2022-09-09T15:05:18.656Z,1.60
2022-09-09T15:10:21.157Z,1.73
2022-09-09T15:15:23.643Z,2.45
2022-09-09T15:20:37.075Z,1.75
2022-09-09T15:25:56.050Z,2.03
2022-09-09T15:30:59.936Z,1.73
2022-09-09T15:36:02.604Z,2.08
2022-09-09T15:41:05.310Z,1.80
2022-09-09T15:46:28.940Z,2.15
2022-09-09T15:51:42.172Z,3.00
2022-09-09T15:56:46.993Z,2.20
2022-09-09T16:01:52.679Z,2.15
2022-09-09T16:07:06.094Z,2.00
2022-09-09T16:12:09.504Z,2.03
2022-09-09T16:17:12.769Z,2.03
2022-09-09T16:22:17.374Z,1.90
2022-09-09T16:27:20.030Z,2.13
2022-09-09T16:32:22.577Z,2.00
2022-09-09T16:37:24.971Z,2.15
2022-09-09T16:42:27.393Z,2.10
2022-09-09T16:47:29.758Z,2.00
2022-09-09T16:52:32.159Z,2.58
2022-09-09T16:57:34.489Z,2.70
2022-09-09T17:02:36.862Z,2.97
2022-09-09T17:07:40.335Z,3.20
2022-09-09T17:12:42.868Z,2.55
2022-09-09T17:17:46.569Z,2.92
2022-09-09T17:22:49.304Z,4.28
2022-09-09T17:27:52.573Z,3.33
2022-09-09T17:32:57.531Z,3.70
2022-09-09T17:38:00.199Z,4.50
2022-09-09T17:43:03.007Z,4.10
2022-09-09T17:48:07.987Z,2.83
2022-09-09T17:53:11.896Z,3.00
2022-09-09T17:58:17.084Z,2.55
2022-09-09T18:03:19.713Z,2.90
2022-09-09T18:08:22.139Z,2.88
2022-09-09T18:13:26.360Z,2.90
2022-09-09T18:18:40.896Z,2.90
2022-09-09T18:23:53.254Z,3.05
2022-09-09T18:28:58.164Z,3.25
2022-09-09T18:34:03.623Z,3.33
2022-09-09T18:39:08.106Z,3.15
2022-09-09T18:44:21.210Z,2.90
2022-09-09T18:49:25.309Z,3.47
2022-09-09T18:54:34.703Z,4.07
2022-09-09T18:59:37.311Z,3.53
2022-09-09T19:04:39.942Z,5.00
2022-09-09T19:09:43.271Z,4.15
2022-09-09T19:14:46.042Z,4.50
2022-09-09T19:19:52.161Z,3.40
2022-09-09T19:25:04.199Z,3.38
2022-09-09T19:30:08.011Z,2.97
2022-09-09T19:35:11.914Z,2.72
2022-09-09T19:40:20.944Z,3.20
2022-09-09T19:45:23.845Z,3.00
2022-09-09T19:50:26.836Z,2.88
2022-09-09T19:55:29.606Z,3.72
2022-09-09T20:00:32.126Z,3.20
2022-09-09T20:05:35.162Z,3.05
2022-09-09T20:10:37.971Z,2.83
2022-09-09T20:15:40.806Z,3.10
2022-09-09T20:20:43.849Z,2.92
2022-09-09T20:25:46.336Z,2.72
2022-09-09T20:30:52.959Z,3.17
2022-09-09T20:35:55.568Z,2.65
2022-09-09T20:40:57.972Z,2.85
2022-09-09T20:46:03.896Z,2.90
2022-09-09T20:51:07.416Z,2.90
2022-09-09T20:56:10.937Z,3.15
2022-09-09T21:01:17.595Z,2.70
2022-09-09T21:06:21.119Z,2.60
2022-09-09T21:11:26.467Z,3.42
2022-09-09T21:16:28.838Z,2.80
2022-09-09T21:21:31.942Z,2.80
2022-09-09T21:26:34.422Z,3.22
2022-09-09T21:31:37.919Z,2.95
2022-09-09T21:36:41.436Z,2.85
2022-09-09T21:41:57.663Z,2.47
2022-09-09T21:47:00.219Z,3.15
2022-09-09T21:52:03.739Z,3.17
2022-09-09T21:57:06.204Z,2.90
2022-09-09T22:02:10.522Z,3.15
2022-09-09T22:07:12.992Z,3.15
2022-09-09T22:12:15.551Z,3.90
2022-09-09T22:17:18.149Z,3.17
2022-09-09T22:22:20.914Z,3.60
2022-09-09T22:27:23.356Z,3.80
2022-09-09T22:32:26.239Z,3.85
2022-09-09T22:37:28.561Z,3.78
2022-09-09T22:42:31.309Z,4.75
2022-09-09T22:47:34.527Z,3.80
2022-09-09T22:52:37.622Z,3.95
2022-09-09T22:57:39.955Z,4.82
2022-09-09T23:02:42.411Z,4.30
2022-09-09T23:07:45.452Z,3.85
2022-09-09T23:12:48.345Z,3.55
2022-09-09T23:17:52.703Z,3.65
2022-09-09T23:22:55.361Z,3.55
2022-09-09T23:27:59.097Z,4.00
2022-09-09T23:33:01.755Z,3.83
2022-09-09T23:38:04.070Z,4.00
2022-09-09T23:43:07.654Z,3.70
2022-09-09T23:48:10.013Z,3.08
2022-09-09T23:53:16.308Z,3.25
2022-09-09T23:58:18.784Z,4.35
